Time;durP1;ratioP1;P1;durP2;ratioP2;P2;SDS_P1;SDS_P2;PMS_P1;PMS_P2;Temp;Humidity;BMP_temperature;BMP_pressure;BME280_temperature;BME280_humidity;BME280_pressure;Samples;Min_cycle;Max_cycle;Signal;HPM_P1;HPM_P2
2023/08/02 00:00:01;;;;;;;23.35;11.45;;;;;;;20.62;69.95;99265.25;5110047;28;20176;-61
2023/08/02 00:02:30;;;;;;;15.60;11.88;;;;;;;20.59;70.07;99256.66;5091700;28;20173;-62
2023/08/02 00:04:55;;;;;;;25.38;12.63;;;;;;;20.62;70.17;99265.25;5109689;28;20502;-66
2023/08/02 00:07:21;;;;;;;23.73;12.52;;;;;;;20.50;69.91;99239.69;5109022;28;20036;-61
2023/08/02 00:09:46;;;;;;;21.70;12.18;;;;;;;20.61;70.05;99269.00;5109547;28;20354;-61
2023/08/02 00:12:12;;;;;;;22.58;12.10;;;;;;;20.67;70.14;99267.34;5091756;28;20031;-66
2023/08/02 00:14:37;;;;;;;23.73;13.00;;;;;;;20.65;70.31;99264.84;5109681;28;20038;-60
2023/08/02 00:17:03;;;;;;;16.60;11.88;;;;;;;20.66;69.93;99271.13;5109366;28;20079;-62
2023/08/02 00:19:28;;;;;;;25.25;12.75;;;;;;;20.61;70.12;99249.13;5099465;28;20424;-64
2023/08/02 00:21:54;;;;;;;20.92;12.77;;;;;;;20.65;70.49;99269.44;5093284;28;20090;-60
2023/08/02 00:24:19;;;;;;;26.30;13.38;;;;;;;20.62;70.59;99258.97;5095410;28;20446;-61
2023/08/02 00:26:45;;;;;;;24.75;12.90;;;;;;;20.60;70.76;99255.63;5095700;28;20040;-61
2023/08/02 00:29:10;;;;;;;24.60;14.02;;;;;;;20.54;70.52;99248.28;5095313;28;20107;-62
2023/08/02 00:31:36;;;;;;;26.70;14.00;;;;;;;20.59;70.85;99253.94;5095281;28;20020;-61
2023/08/02 00:34:01;;;;;;;29.60;13.68;;;;;;;20.60;70.97;99264.59;5095233;28;20027;-64
2023/08/02 00:36:27;;;;;;;24.33;13.52;;;;;;;20.56;71.13;99262.50;5095052;28;20027;-63
2023/08/02 00:38:52;;;;;;;25.15;13.48;;;;;;;20.54;70.96;99267.31;5095145;28;20062;-62
2023/08/02 00:41:18;;;;;;;28.30;13.85;;;;;;;20.33;71.43;99228.31;5095378;28;20028;-61
2023/08/02 00:43:45;;;;;;;26.67;14.18;;;;;;;20.27;71.24;99234.59;5094423;28;20471;-62
2023/08/02 00:46:14;;;;;;;26.05;14.50;;;;;;;20.51;71.37;99283.00;5095270;28;20045;-61
2023/08/02 00:48:39;;;;;;;25.15;14.38;;;;;;;20.50;71.33;99267.72;5095913;28;20118;-60
2023/08/02 00:51:08;;;;;;;21.48;14.15;;;;;;;20.46;71.41;99266.44;5095012;28;20123;-61
2023/08/02 00:53:34;;;;;;;21.80;13.90;;;;;;;20.49;71.38;99267.91;5095138;28;20043;-60
2023/08/02 00:56:00;;;;;;;23.27;13.70;;;;;;;20.47;71.51;99264.56;5095131;28;20031;-61
2023/08/02 00:58:25;;;;;;;20.52;13.60;;;;;;;20.26;71.49;99228.28;5078227;28;20020;-61
2023/08/02 01:00:51;;;;;;;31.02;14.30;;;;;;;20.44;71.30;99263.06;5094902;28;20447;-60
2023/08/02 01:03:16;;;;;;;21.40;14.85;;;;;;;20.40;71.17;99267.25;5095002;28;20059;-62
2023/08/02 01:05:55;;;;;;;23.73;13.55;;;;;;;20.44;71.91;99273.13;5095202;28;20081;-62
2023/08/02 01:08:32;;;;;;;21.45;14.48;;;;;;;20.38;72.11;99269.34;5094799;28;20048;-61
2023/08/02 01:11:08;;;;;;;21.88;14.50;;;;;;;20.37;72.35;99270.38;5094899;28;20036;-61
2023/08/02 01:13:39;;;;;;;20.92;14.73;;;;;;;20.32;72.47;99275.59;5077579;28;20028;-61
2023/08/02 01:16:07;;;;;;;24.30;15.00;;;;;;;20.27;72.50;99278.06;5094565;28;20350;-62
2023/08/02 01:18:32;;;;;;;19.60;13.10;;;;;;;20.02;72.84;99230.47;5076563;28;20358;-61
2023/08/02 01:20:58;;;;;;;22.80;14.30;;;;;;;20.21;72.71;99264.22;5094282;28;20020;-60
2023/08/02 01:23:23;;;;;;;26.70;15.05;;;;;;;20.18;73.38;99263.81;5094211;28;20047;-62
2023/08/02 01:25:51;;;;;;;22.58;15.75;;;;;;;20.15;72.14;99259.59;5076601;28;20040;-61
2023/08/02 01:28:22;;;;;;;18.90;14.82;;;;;;;20.23;72.52;99264.03;5076553;28;20071;-68
2023/08/02 01:30:50;;;;;;;20.30;13.90;;;;;;;20.12;72.76;99254.56;5093278;28;20082;-65
2023/08/02 01:33:17;;;;;;;20.70;14.15;;;;;;;20.15;72.78;99259.59;5094695;28;20354;-62
2023/08/02 01:35:42;;;;;;;19.40;14.00;;;;;;;19.96;73.16;99230.44;5093927;28;20081;-60
2023/08/02 01:38:08;;;;;;;19.25;14.30;;;;;;;20.00;73.11;99246.13;5093859;28;20032;-65
2023/08/02 01:40:33;;;;;;;23.30;14.13;;;;;;;20.11;73.23;99260.19;5093942;28;20077;-61
2023/08/02 01:42:59;;;;;;;22.58;14.50;;;;;;;20.09;73.12;99265.84;5094035;28;20362;-61
2023/08/02 01:45:24;;;;;;;19.65;14.80;;;;;;;20.08;73.12;99266.88;5094040;28;20357;-59
2023/08/02 01:47:51;;;;;;;20.70;14.40;;;;;;;20.05;73.38;99270.00;5094047;28;20358;-61
2023/08/02 01:50:17;;;;;;;26.73;15.00;;;;;;;19.89;73.88;99247.50;5093785;28;20020;-61
2023/08/02 01:52:43;;;;;;;24.73;15.70;;;;;;;20.03;73.92;99256.59;5093928;28;20046;-60
2023/08/02 01:55:08;;;;;;;28.00;14.15;;;;;;;20.09;73.95;99263.13;5094237;28;20024;-61
2023/08/02 01:57:34;;;;;;;26.50;14.38;;;;;;;20.10;73.70;99267.53;5093423;28;20056;-62
2023/08/02 01:59:59;;;;;;;21.98;15.85;;;;;;;20.12;73.70;99270.88;5093819;28;20084;-61
2023/08/02 02:02:25;;;;;;;21.60;14.98;;;;;;;20.17;73.52;99268.38;5093573;28;20024;-60
2023/08/02 02:04:51;;;;;;;23.77;15.75;;;;;;;20.24;73.48;99276.59;5076149;28;20032;-61
2023/08/02 02:07:17;;;;;;;19.95;15.07;;;;;;;20.26;73.43;99279.13;5075780;28;20139;-60
2023/08/02 02:09:42;;;;;;;24.98;15.70;;;;;;;20.29;73.17;99289.59;5093484;28;20036;-60
2023/08/02 02:12:08;;;;;;;22.08;16.15;;;;;;;20.33;72.99;99274.53;5093588;28;20024;-60
2023/08/02 02:14:34;;;;;;;22.05;15.05;;;;;;;20.30;73.10;99266.78;5093191;28;20177;-60
2023/08/02 02:16:59;;;;;;;23.23;16.60;;;;;;;20.39;73.07;99275.63;5075532;28;20123;-60
2023/08/02 02:19:25;;;;;;;22.10;16.33;;;;;;;20.43;72.70;99276.91;5075654;28;20034;-60
2023/08/02 02:21:50;;;;;;;19.63;16.52;;;;;;;20.46;72.46;99279.19;5092799;28;20039;-62
2023/08/02 02:24:16;;;;;;;25.70;16.20;;;;;;;20.40;72.29;99252.84;5093791;28;20028;-60
2023/08/02 02:26:41;;;;;;;21.40;16.05;;;;;;;20.50;72.33;99258.72;5093379;28;20056;-61
2023/08/02 02:29:07;;;;;;;19.63;15.77;;;;;;;20.58;72.27;99260.44;5090581;28;20043;-60
2023/08/02 02:31:32;;;;;;;24.65;15.82;;;;;;;20.70;71.71;99268.84;5092383;28;20043;-61
2023/08/02 02:33:58;;;;;;;20.58;15.75;;;;;;;20.78;71.86;99272.22;5092488;28;20028;-61
2023/08/02 02:36:23;;;;;;;21.95;15.18;;;;;;;20.73;71.53;99263.81;5093282;28;20107;-61
2023/08/02 02:38:49;;;;;;;18.98;15.63;;;;;;;20.85;70.77;99274.16;5093072;28;20463;-61
2023/08/02 02:41:14;;;;;;;22.85;15.32;;;;;;;20.92;70.61;99275.84;5093120;28;20039;-60
2023/08/02 02:43:40;;;;;;;24.67;16.15;;;;;;;20.94;70.30;99273.75;5092611;28;20184;-60
2023/08/02 02:46:05;;;;;;;23.77;15.77;;;;;;;21.04;70.29;99272.50;5093098;28;20028;-61
2023/08/02 02:48:31;;;;;;;19.95;14.25;;;;;;;20.96;70.20;99245.50;5092895;28;20028;-61
2023/08/02 02:50:56;;;;;;;20.42;15.52;;;;;;;21.23;70.07;99277.16;5093094;28;20030;-61
2023/08/02 02:53:23;;;;;;;21.58;16.15;;;;;;;21.13;69.47;99251.38;5092092;28;20028;-62
2023/08/02 02:55:51;;;;;;;23.23;16.45;;;;;;;21.34;68.67;99283.88;5093432;28;20028;-60
2023/08/02 02:58:17;;;;;;;20.33;16.58;;;;;;;21.42;68.99;99284.72;5092643;28;20039;-61
2023/08/02 03:00:43;;;;;;;24.05;16.40;;;;;;;21.50;68.86;99281.78;5091839;28;20032;-61
2023/08/02 03:03:08;;;;;;;28.27;17.42;;;;;;;21.59;68.33;99276.97;5093073;28;20115;-61
2023/08/02 03:05:34;;;;;;;21.50;16.77;;;;;;;21.67;67.77;99271.34;5092521;28;20442;-60
2023/08/02 03:08:00;;;;;;;23.15;18.42;;;;;;;21.76;67.62;99275.50;5092415;28;20064;-61
2023/08/02 03:10:25;;;;;;;26.38;17.92;;;;;;;21.83;67.14;99267.34;5092773;28;20049;-61
2023/08/02 03:12:50;;;;;;;26.80;17.40;;;;;;;21.90;66.88;99264.63;5093022;28;20115;-61
2023/08/02 03:15:16;;;;;;;22.15;17.70;;;;;;;21.99;66.77;99263.31;5092739;28;20401;-61
2023/08/02 03:17:42;;;;;;;26.00;18.98;;;;;;;22.05;66.38;99264.38;5092788;28;20044;-60
2023/08/02 03:20:07;;;;;;;27.27;18.33;;;;;;;22.11;65.97;99259.97;5092538;28;20107;-60
2023/08/02 03:22:33;;;;;;;24.17;19.52;;;;;;;22.19;65.64;99263.31;5089908;28;20408;-59
2023/08/02 03:24:59;;;;;;;24.80;19.10;;;;;;;22.06;65.48;99228.75;5092548;28;20032;-62
2023/08/02 03:27:24;;;;;;;25.60;18.63;;;;;;;22.41;65.25;99270.34;5091687;28;20439;-62
2023/08/02 03:29:50;;;;;;;23.35;17.55;;;;;;;22.51;64.58;99271.59;5090054;28;20150;-59
2023/08/02 03:32:15;;;;;;;24.38;19.08;;;;;;;22.63;64.20;99269.03;5091649;28;20434;-61
2023/08/02 03:34:41;;;;;;;19.70;17.52;;;;;;;22.76;63.93;99270.00;5091642;28;20111;-60
2023/08/02 03:37:06;;;;;;;25.65;17.15;;;;;;;22.70;63.39;99238.16;5092564;28;20036;-61
2023/08/02 03:39:32;;;;;;;27.95;17.65;;;;;;;23.04;62.52;99263.38;5091569;28;20032;-61
2023/08/02 03:41:57;;;;;;;26.20;17.83;;;;;;;23.48;61.07;99277.16;5092473;28;20067;-62
2023/08/02 03:44:23;;;;;;;26.60;17.70;;;;;;;24.15;59.19;99273.84;5073175;28;20043;-61
2023/08/02 03:46:48;;;;;;;25.55;17.85;;;;;;;24.98;56.36;99265.25;5075077;28;20039;-62
2023/08/02 03:49:14;;;;;;;23.13;16.17;;;;;;;25.86;53.90;99270.19;5074382;28;20028;-61
2023/08/02 03:51:40;;;;;;;18.70;14.07;;;;;;;26.77;51.48;99259.78;5074647;28;20024;-61
2023/08/02 03:54:06;;;;;;;18.23;14.35;;;;;;;27.38;48.95;99237.28;5092947;28;20074;-61
2023/08/02 03:56:31;;;;;;;18.88;13.63;;;;;;;28.43;46.63;99255.03;5096091;28;20036;-62
2023/08/02 03:58:56;;;;;;;16.15;11.48;;;;;;;29.39;44.29;99270.38;5096156;28;20039;-61
2023/08/02 04:01:22;;;;;;;17.92;10.57;;;;;;;30.04;41.66;99275.91;5096307;28;20024;-60
2023/08/02 04:03:47;;;;;;;17.40;11.23;;;;;;;30.63;40.48;99271.25;5095890;28;20115;-60
2023/08/02 04:06:13;;;;;;;13.75;10.60;;;;;;;31.13;39.78;99246.75;5078081;28;20027;-62
2023/08/02 04:08:39;;;;;;;17.38;11.15;;;;;;;31.85;38.11;99262.56;5079003;28;20056;-60
2023/08/02 04:11:05;;;;;;;15.90;9.95;;;;;;;32.51;36.83;99268.19;5078191;28;20454;-61
2023/08/02 04:13:31;;;;;;;13.07;9.98;;;;;;;33.12;35.60;99259.84;5095500;28;20077;-62
2023/08/02 04:15:57;;;;;;;12.57;9.13;;;;;;;33.85;34.35;99266.44;5095360;28;20034;-64
2023/08/02 04:18:22;;;;;;;21.80;10.20;;;;;;;34.72;32.87;99265.75;5078352;28;20032;-62
2023/08/02 04:20:48;;;;;;;17.17;9.93;;;;;;;35.27;31.22;99261.63;5095785;28;20036;-62
2023/08/02 04:23:13;;;;;;;13.45;9.88;;;;;;;35.86;30.28;99264.00;5095412;28;20078;-61
2023/08/02 04:25:39;;;;;;;15.30;9.60;;;;;;;36.51;29.08;99273.31;5095631;28;20111;-62
2023/08/02 04:28:05;;;;;;;13.00;9.25;;;;;;;36.88;29.02;99273.38;5095499;28;20434;-62
2023/08/02 04:30:31;;;;;;;14.05;9.02;;;;;;;36.53;29.22;99273.03;5095570;28;20346;-64
2023/08/02 04:32:56;;;;;;;10.77;7.82;;;;;;;36.06;29.73;99271.16;5095413;28;20039;-71
2023/08/02 04:35:22;;;;;;;9.65;7.53;;;;;;;35.48;30.05;99276.84;5095789;28;20123;-62
2023/08/02 04:37:48;;;;;;;12.77;6.90;;;;;;;35.24;30.50;99277.00;5095549;28;20059;-61
2023/08/02 04:40:13;;;;;;;13.18;7.70;;;;;;;34.85;31.07;99281.72;5095005;28;20043;-61
2023/08/02 04:42:39;;;;;;;9.73;7.32;;;;;;;34.26;31.92;99281.06;5094795;28;20031;-61
2023/08/02 04:45:05;;;;;;;13.07;7.88;;;;;;;33.63;32.67;99280.81;5094180;28;20020;-62
2023/08/02 04:47:31;;;;;;;14.13;8.38;;;;;;;33.50;33.00;99283.16;5095019;28;20078;-63
2023/08/02 04:49:57;;;;;;;10.63;8.10;;;;;;;34.76;31.01;99283.50;5095267;28;20070;-62
2023/08/02 04:52:23;;;;;;;14.82;10.93;;;;;;;36.47;28.74;99278.69;5095300;28;20028;-62
2023/08/02 04:54:48;;;;;;;18.33;11.38;;;;;;;37.27;27.00;99244.00;5095125;28;20028;-62
2023/08/02 04:57:14;;;;;;;18.98;14.77;;;;;;;36.87;27.89;99277.28;5095187;28;20419;-63
2023/08/02 04:59:39;;;;;;;18.98;13.60;;;;;;;35.09;30.28;99247.47;5094885;28;20086;-63
2023/08/02 05:02:05;;;;;;;15.95;12.40;;;;;;;34.00;32.22;99275.75;5094043;28;20035;-61
2023/08/02 05:04:30;;;;;;;17.38;11.20;;;;;;;33.28;33.47;99283.56;5093656;28;20042;-61
2023/08/02 05:06:56;;;;;;;14.40;11.90;;;;;;;33.18;33.27;99236.47;5094958;28;20048;-61
2023/08/02 05:09:22;;;;;;;15.77;11.55;;;;;;;33.66;33.02;99287.72;5094685;28;20075;-63
2023/08/02 05:11:47;;;;;;;17.80;11.20;;;;;;;33.52;32.50;99251.50;5094906;28;20073;-62
2023/08/02 05:14:12;;;;;;;15.48;11.70;;;;;;;34.27;31.87;99271.59;5094525;28;20371;-62
2023/08/02 05:16:38;;;;;;;17.08;11.27;;;;;;;34.66;31.07;99275.31;5094460;28;20035;-61
2023/08/02 05:19:04;;;;;;;13.55;10.30;;;;;;;34.21;31.48;99256.94;5093127;28;20043;-67
2023/08/02 05:21:29;;;;;;;12.93;10.15;;;;;;;33.84;32.22;99280.59;5076781;28;20084;-68
2023/08/02 05:23:55;;;;;;;9.70;8.77;;;;;;;33.70;32.12;99255.50;5094869;28;20036;-68
2023/08/02 05:26:22;;;;;;;10.32;8.82;;;;;;;34.04;31.90;99291.53;5093986;28;20085;-68
2023/08/02 05:28:47;;;;;;;11.90;9.18;;;;;;;34.80;30.88;99273.41;5092857;28;20065;-68
2023/08/02 05:31:14;;;;;;;15.18;10.02;;;;;;;36.27;28.79;99273.53;5076481;28;20047;-69
2023/08/02 05:33:40;;;;;;;10.30;9.20;;;;;;;37.82;26.58;99275.56;5094161;28;20038;-69
2023/08/02 05:36:06;;;;;;;12.00;9.27;;;;;;;39.30;25.00;99270.69;5093731;28;20095;-67
2023/08/02 05:38:36;;;;;;;12.88;8.65;;;;;;;40.51;23.59;99273.81;5093421;28;20426;-69
2023/08/02 05:41:02;;;;;;;11.00;9.98;;;;;;;41.24;22.19;99275.47;5086295;28;20035;-69
2023/08/02 05:43:29;;;;;;;11.48;8.93;;;;;;;42.29;21.00;99250.16;5076592;28;20122;-70
2023/08/02 05:45:56;;;;;;;11.85;9.15;;;;;;;43.35;20.14;99274.72;5076107;28;20054;-70
2023/08/02 05:48:23;;;;;;;9.00;8.05;;;;;;;44.09;19.26;99276.25;5093464;28;20036;-70
2023/08/02 05:50:48;;;;;;;13.35;8.38;;;;;;;44.67;18.67;99265.56;5075720;28;20427;-67
2023/08/02 05:53:14;;;;;;;9.98;8.23;;;;;;;44.62;18.51;99266.69;5075783;28;20027;-66
2023/08/02 05:55:40;;;;;;;11.15;7.95;;;;;;;45.39;17.60;99264.28;5093988;28;20450;-68
2023/08/02 05:58:05;;;;;;;9.52;8.48;;;;;;;45.84;17.30;99266.72;5093845;28;20021;-68
2023/08/02 06:00:31;;;;;;;11.80;8.57;;;;;;;46.36;16.97;99264.34;5093877;28;20149;-69
2023/08/02 06:02:57;;;;;;;9.85;7.13;;;;;;;46.73;16.78;99271.38;5093203;28;20420;-69
2023/08/02 06:05:22;;;;;;;9.02;7.55;;;;;;;47.34;16.10;99267.69;5093018;28;20055;-67
2023/08/02 06:07:48;;;;;;;11.48;6.82;;;;;;;45.33;17.57;99262.13;5092572;28;20063;-68
2023/08/02 06:10:13;;;;;;;11.77;7.70;;;;;;;43.16;19.92;99267.72;5092838;28;20044;-68
2023/08/02 06:12:39;;;;;;;14.82;8.18;;;;;;;41.14;21.78;99228.97;5093474;28;20031;-68
2023/08/02 06:15:05;;;;;;;12.52;7.13;;;;;;;39.95;23.38;99260.72;5093809;28;20502;-68
2023/08/02 06:17:31;;;;;;;9.32;7.80;;;;;;;41.12;22.23;99261.34;5092745;28;20035;-69
2023/08/02 06:19:56;;;;;;;13.18;8.27;;;;;;;42.06;21.02;99256.28;5093058;28;20024;-68
2023/08/02 06:22:22;;;;;;;11.55;8.55;;;;;;;41.41;21.70;99245.56;5093050;28;20032;-69
2023/08/02 06:24:47;;;;;;;10.68;8.27;;;;;;;42.25;20.87;99249.25;5092898;28;20043;-68
2023/08/02 06:27:13;;;;;;;10.23;7.20;;;;;;;44.41;18.63;99247.22;5093089;28;20035;-69
2023/08/02 06:29:38;;;;;;;9.32;8.40;;;;;;;44.95;17.82;99262.56;5092725;28;20039;-68
2023/08/02 06:32:04;;;;;;;12.25;7.65;;;;;;;43.15;19.92;99240.75;5092947;28;20028;-68
2023/08/02 06:34:30;;;;;;;14.77;8.63;;;;;;;43.37;19.12;99229.28;5093613;28;20362;-67
2023/08/02 06:36:55;;;;;;;15.30;8.45;;;;;;;43.82;19.13;99256.25;5093087;28;20027;-67
2023/08/02 06:39:21;;;;;;;12.32;6.95;;;;;;;43.10;19.72;99259.88;5092036;28;20047;-66
2023/08/02 06:41:46;;;;;;;8.40;5.97;;;;;;;42.16;21.14;99252.97;5092762;28;20502;-67
2023/08/02 06:44:13;;;;;;;5.03;4.53;;;;;;;43.77;19.48;99252.88;5093169;28;20024;-69
2023/08/02 06:46:40;;;;;;;7.53;5.80;;;;;;;46.13;17.22;99258.72;5092947;28;20039;-69
2023/08/02 06:49:05;;;;;;;5.10;4.60;;;;;;;47.29;15.74;99255.53;5092066;28;20028;-70
2023/08/02 06:51:31;;;;;;;6.60;5.40;;;;;;;47.99;15.09;99256.97;5075347;28;20093;-69
2023/08/02 06:53:57;;;;;;;9.25;6.30;;;;;;;48.35;15.32;99251.59;5075130;28;20419;-67
2023/08/02 06:56:23;;;;;;;9.90;6.80;;;;;;;48.33;14.57;99264.53;5083393;28;20301;-70
2023/08/02 06:58:49;;;;;;;7.47;5.95;;;;;;;47.56;15.63;99251.72;5088448;28;20457;-72
2023/08/02 07:01:17;;;;;;;10.70;5.65;;;;;;;46.37;16.24;99263.16;5092814;28;20028;-71
2023/08/02 07:03:43;;;;;;;9.75;6.88;;;;;;;45.12;17.62;99223.78;5092186;28;20081;-70
2023/08/02 07:06:16;;;;;;;12.07;6.35;;;;;;;44.21;18.88;99243.53;5092241;28;20434;-69
2023/08/02 07:08:42;;;;;;;10.15;6.78;;;;;;;42.13;20.92;99242.44;5092271;28;20528;-71
2023/08/02 07:11:08;;;;;;;8.43;5.68;;;;;;;40.27;23.28;99214.41;5091526;28;20116;-70
2023/08/02 07:13:37;;;;;;;13.32;7.10;;;;;;;40.38;22.77;99222.41;5074595;28;20031;-71
2023/08/02 07:16:04;;;;;;;7.00;6.30;;;;;;;40.88;22.56;99246.03;5091924;28;20339;-71
2023/08/02 07:18:29;;;;;;;9.45;7.38;;;;;;;41.97;21.30;99235.88;5092002;28;20032;-71
2023/08/02 07:20:55;;;;;;;13.63;6.75;;;;;;;42.12;21.21;99235.19;5091135;28;20032;-69
2023/08/02 07:23:22;;;;;;;7.60;6.55;;;;;;;40.40;23.10;99237.75;5091757;28;20097;-68
2023/08/02 07:25:47;;;;;;;11.10;7.40;;;;;;;39.35;24.20;99230.50;5087940;28;20091;-66
2023/08/02 07:28:13;;;;;;;10.65;7.32;;;;;;;39.05;24.53;99219.19;5092602;28;20043;-66
2023/08/02 07:30:38;;;;;;;9.02;6.90;;;;;;;38.80;25.07;99201.22;5095697;28;20028;-64
2023/08/02 07:33:04;;;;;;;13.25;7.38;;;;;;;38.20;25.53;99229.56;5078806;28;20039;-66
2023/08/02 07:35:29;;;;;;;13.25;8.20;;;;;;;37.49;26.16;99218.06;5078273;28;20035;-67
2023/08/02 07:37:55;;;;;;;15.48;7.70;;;;;;;36.60;28.21;99226.03;5095616;28;20028;-66
2023/08/02 07:40:21;;;;;;;17.65;9.48;;;;;;;35.30;29.95;99222.91;5096045;28;20028;-67
2023/08/02 07:42:46;;;;;;;13.23;8.80;;;;;;;34.02;32.12;99220.78;5079114;28;20028;-64
2023/08/02 07:45:12;;;;;;;13.80;10.07;;;;;;;33.12;33.69;99237.66;5094007;28;20350;-66
2023/08/02 07:47:39;;;;;;;14.10;9.85;;;;;;;33.17;33.77;99234.84;5086413;28;20036;-63
2023/08/02 07:50:05;;;;;;;14.60;9.80;;;;;;;33.12;33.65;99235.69;5090534;28;20389;-68
2023/08/02 07:52:31;;;;;;;15.68;10.55;;;;;;;33.13;34.02;99226.25;5095316;28;20035;-67
2023/08/02 07:54:57;;;;;;;13.82;9.98;;;;;;;35.74;29.88;99222.72;5094912;28;20036;-66
2023/08/02 07:57:25;;;;;;;14.43;9.85;;;;;;;39.01;25.61;99229.41;5094371;28;20032;-68
2023/08/02 07:59:52;;;;;;;16.90;9.35;;;;;;;41.80;21.72;99206.81;5095162;28;20036;-65
2023/08/02 08:02:18;;;;;;;9.05;7.32;;;;;;;42.00;21.21;99243.59;5095245;28;20449;-65
2023/08/02 08:04:44;;;;;;;14.13;8.32;;;;;;;41.02;22.30;99240.13;5091746;28;20059;-68
2023/08/02 08:07:09;;;;;;;9.52;8.30;;;;;;;39.94;23.31;99219.84;5094047;28;20702;-64
2023/08/02 08:09:35;;;;;;;9.40;6.78;;;;;;;39.36;24.22;99228.53;5092801;28;20043;-62
2023/08/02 08:12:05;;;;;;;13.60;7.68;;;;;;;38.62;25.35;99232.00;5091045;28;20429;-61
2023/08/02 08:14:31;;;;;;;14.23;8.25;;;;;;;38.04;25.75;99220.81;5093988;28;20060;-61
2023/08/02 08:16:58;;;;;;;12.35;6.68;;;;;;;38.80;25.31;99227.25;5094916;28;20032;-63
2023/08/02 08:19:24;;;;;;;9.73;6.90;;;;;;;38.14;25.17;99225.28;5094642;28;20132;-63
2023/08/02 08:21:50;;;;;;;11.98;6.72;;;;;;;36.72;27.31;99211.53;5094004;28;20024;-62
2023/08/02 08:24:15;;;;;;;8.93;6.40;;;;;;;36.17;28.10;99216.06;5090768;28;20024;-62
2023/08/02 08:26:41;;;;;;;10.10;6.78;;;;;;;35.70;28.56;99185.50;5078213;28;20047;-67
2023/08/02 08:29:06;;;;;;;12.05;6.70;;;;;;;35.41;29.49;99215.19;5094972;28;20035;-66
2023/08/02 08:31:32;;;;;;;8.77;6.20;;;;;;;34.47;30.87;99221.28;5094413;28;20027;-68
2023/08/02 08:33:58;;;;;;;11.43;6.85;;;;;;;33.55;32.55;99201.81;5094435;28;20085;-65
2023/08/02 08:36:25;;;;;;;9.73;6.82;;;;;;;32.97;33.37;99208.91;5093358;28;20115;-65
2023/08/02 08:38:52;;;;;;;11.05;6.50;;;;;;;32.40;33.91;99195.38;5094730;28;20035;-66
2023/08/02 08:41:17;;;;;;;10.35;6.45;;;;;;;32.10;34.77;99202.69;5094635;28;20089;-66
2023/08/02 08:43:43;;;;;;;9.80;6.25;;;;;;;32.28;34.75;99194.84;5093453;28;20032;-64
2023/08/02 08:46:11;;;;;;;9.70;6.63;;;;;;;32.47;33.96;99203.38;5094514;28;20500;-65
2023/08/02 08:48:38;;;;;;;6.68;5.97;;;;;;;32.07;34.58;99194.94;5094245;28;20036;-69
2023/08/02 08:51:05;;;;;;;11.82;6.93;;;;;;;31.60;35.64;99197.81;5094509;28;20127;-61
2023/08/02 08:53:34;;;;;;;7.90;6.45;;;;;;;31.24;36.49;99186.78;5094440;28;20036;-61
2023/08/02 08:56:01;;;;;;;7.70;6.55;;;;;;;30.76;37.26;99196.13;5094334;28;20394;-61
2023/08/02 08:58:28;;;;;;;10.65;5.68;;;;;;;30.65;36.68;99188.94;5094007;28;20031;-61
2023/08/02 09:00:54;;;;;;;8.10;5.70;;;;;;;30.88;36.40;99184.81;5094555;28;20028;-60
2023/08/02 09:03:20;;;;;;;8.02;5.70;;;;;;;31.25;34.62;99198.69;5094484;28;20034;-62
2023/08/02 09:05:46;;;;;;;10.57;5.78;;;;;;;31.46;34.66;99189.25;5077047;28;20108;-61
2023/08/02 09:08:12;;;;;;;8.23;5.55;;;;;;;31.43;33.99;99200.06;5094248;28;20164;-61
2023/08/02 09:10:38;;;;;;;7.00;5.40;;;;;;;31.49;34.70;99201.69;5094758;28;20515;-61
2023/08/02 09:13:04;;;;;;;6.72;5.38;;;;;;;31.57;34.60;99187.28;5094259;28;20039;-61
2023/08/02 09:15:30;;;;;;;6.65;5.30;;;;;;;31.45;34.17;99176.53;5094677;28;20047;-61
2023/08/02 09:17:56;;;;;;;6.10;5.30;;;;;;;31.32;34.75;99155.78;5094184;28;20453;-62
2023/08/02 09:20:24;;;;;;;6.00;4.78;;;;;;;31.49;34.25;99188.72;5094262;28;20035;-63
2023/08/02 09:22:50;;;;;;;5.47;4.97;;;;;;;31.46;34.25;99186.47;5094328;28;20024;-61
2023/08/02 09:25:27;;;;;;;6.78;5.78;;;;;;;31.48;34.17;99184.28;5094479;28;20047;-61
2023/08/02 09:27:55;;;;;;;6.10;5.20;;;;;;;31.14;35.05;99204.16;5094520;28;20165;-62
2023/08/02 09:30:23;;;;;;;6.50;4.70;;;;;;;30.85;34.76;99177.06;5094822;28;20020;-62
2023/08/02 09:32:59;;;;;;;6.15;5.47;;;;;;;30.71;35.27;99178.69;5094139;28;20043;-62
2023/08/02 09:35:25;;;;;;;7.18;5.82;;;;;;;30.52;34.89;99170.91;5094323;28;20020;-62
2023/08/02 09:37:51;;;;;;;5.88;5.00;;;;;;;30.42;36.06;99166.19;5094333;28;20028;-62
2023/08/02 09:40:16;;;;;;;9.65;5.88;;;;;;;30.70;35.91;99168.75;5094111;28;20035;-63
2023/08/02 09:42:42;;;;;;;6.10;5.60;;;;;;;30.93;34.80;99164.66;5075885;28;20134;-61
2023/08/02 09:45:08;;;;;;;8.60;5.88;;;;;;;30.82;34.58;99149.16;5094315;28;20404;-61
2023/08/02 09:47:34;;;;;;;7.80;5.70;;;;;;;30.66;35.30;99151.91;5094224;28;20378;-62
2023/08/02 09:50:16;;;;;;;8.88;5.80;;;;;;;30.61;35.41;99151.88;5093628;28;20431;-62
2023/08/02 09:52:42;;;;;;;8.23;6.40;;;;;;;30.69;36.03;99154.13;5093012;28;20036;-61
2023/08/02 09:55:08;;;;;;;11.82;6.75;;;;;;;30.90;36.35;99154.97;5093962;28;20110;-60
2023/08/02 09:57:34;;;;;;;8.38;6.78;;;;;;;30.93;35.83;99148.88;5093318;28;20034;-61
2023/08/02 10:00:07;;;;;;;8.95;6.47;;;;;;;30.89;36.50;99155.25;5093779;28;20024;-62
2023/08/02 10:02:35;;;;;;;8.90;6.60;;;;;;;30.64;36.31;99151.34;5093417;28;20039;-61
2023/08/02 10:05:02;;;;;;;9.07;7.00;;;;;;;30.45;36.83;99154.59;5075888;28;20028;-60
2023/08/02 10:07:32;;;;;;;10.75;7.10;;;;;;;30.60;37.05;99151.03;5093283;28;20052;-61
2023/08/02 10:10:04;;;;;;;7.30;6.70;;;;;;;30.83;36.37;99135.06;5092842;28;20036;-63
2023/08/02 10:12:33;;;;;;;9.35;6.93;;;;;;;31.01;36.41;99121.81;5074908;28;20036;-61
2023/08/02 10:15:00;;;;;;;6.97;6.40;;;;;;;31.31;35.80;99140.31;5093516;28;20034;-63
2023/08/02 10:17:26;;;;;;;8.02;7.30;;;;;;;31.18;35.67;99140.88;5093536;28;20089;-62
2023/08/02 10:19:52;;;;;;;7.93;6.35;;;;;;;30.75;35.40;99133.69;5093366;28;20020;-61
2023/08/02 10:22:18;;;;;;;8.45;7.47;;;;;;;30.41;36.69;99123.13;5093268;28;20120;-61
2023/08/02 10:24:46;;;;;;;8.35;6.85;;;;;;;30.20;37.21;99131.34;5093399;28;20067;-61
2023/08/02 10:27:12;;;;;;;9.32;7.03;;;;;;;30.07;37.45;99115.28;5092403;28;20036;-61
2023/08/02 10:29:39;;;;;;;8.43;7.40;;;;;;;30.13;37.19;99116.13;5093027;28;20090;-61
2023/08/02 10:32:15;;;;;;;8.00;7.20;;;;;;;29.94;37.49;99100.88;5093138;28;20040;-61
2023/08/02 10:34:41;;;;;;;8.13;7.05;;;;;;;29.88;38.23;99101.91;5093319;28;20074;-62
2023/08/02 10:37:06;;;;;;;10.85;6.78;;;;;;;30.11;37.15;99097.06;5075533;28;20040;-62
2023/08/02 10:39:47;;;;;;;7.85;7.05;;;;;;;30.47;36.59;99101.84;5092979;28;20068;-62
2023/08/02 10:42:16;;;;;;;9.32;6.65;;;;;;;30.59;36.67;99093.28;5092779;28;20101;-60
2023/08/02 10:44:54;;;;;;;8.07;7.47;;;;;;;30.82;36.09;99102.16;5093289;28;20024;-62
2023/08/02 10:47:33;;;;;;;8.02;6.60;;;;;;;30.68;35.23;99091.69;5093062;28;20042;-62
2023/08/02 10:50:04;;;;;;;6.80;6.20;;;;;;;30.70;34.65;99088.63;5092593;28;20457;-61
2023/08/02 10:52:34;;;;;;;6.65;6.05;;;;;;;30.90;33.95;99096.09;5092785;28;20028;-64
2023/08/02 10:55:20;;;;;;;6.57;6.00;;;;;;;31.21;33.81;99077.56;5092744;28;20028;-62
2023/08/02 10:57:54;;;;;;;6.88;6.10;;;;;;;31.44;32.75;99075.28;5067248;28;20509;-67
2023/08/02 11:00:24;;;;;;;;;;;;;;;31.96;32.51;99072.38;5092099;28;20055;-69
2023/08/02 11:02:51;;;;;;;7.05;6.30;;;;;;;31.82;32.38;99085.97;5091859;28;19969;-65
2023/08/02 11:05:35;;;;;;;6.55;5.95;;;;;;;31.65;32.32;99087.13;5085891;28;20092;-68
2023/08/02 11:08:01;;;;;;;5.97;5.47;;;;;;;31.22;32.52;99070.91;5089675;28;20050;-64
2023/08/02 11:10:28;;;;;;;5.82;5.30;;;;;;;30.74;34.05;99051.91;5088684;28;20028;-61
2023/08/02 11:12:54;;;;;;;9.80;5.60;;;;;;;30.83;34.41;99081.72;5091078;28;20067;-64
2023/08/02 11:15:21;;;;;;;6.30;5.60;;;;;;;30.70;35.49;99070.13;5091446;28;20028;-63
2023/08/02 11:17:53;;;;;;;7.35;6.15;;;;;;;30.53;35.89;99086.09;5092470;28;20115;-66
2023/08/02 11:20:24;;;;;;;6.55;5.72;;;;;;;30.39;36.37;99056.28;5091777;28;20089;-64